SKSP

Details ICAO SKSP (ADZ)
Name GUSTAVO ROJAS PINILLA
Region Colombia
Timezone Unknown (UTC+0.0)
Plans Departing 80
Arriving 74
Stats Elevation 19 ft / 6 m (AMSL)
Location 12.583595° -81.711191°
Runways 1
Magnetic Variation 3.678° W
Sunrise 2017-12-18 11:43:21 UTC / 2017-12-18 11:43:21 Local
Sunset 2017-12-18 23:06:29 UTC / 2017-12-18 23:06:29 Local
Advertisement - Login to hide

Runways

ID Width Length Bearing (true) Bearing (mag) Surface Threshold Offset Overrun Length
06 148 ft / 45 m 7,815 ft / 2,382 m 59.54° 63.22° Asphalt 0 ft / 0 m 0 ft / 0 m
24 148 ft / 45 m 7,815 ft / 2,382 m 239.55° 243.23° Asphalt 0 ft / 0 m 180 ft / 55 m

Map

Weather


0- 5 10 15 20 25 30 35+ Temperature / ° C

Clouds and Precipitation
Forecast for 2017-12-18 12:00 UTC. Updated 7 minutes ago

Ground ~20,000 ft ~40,000 ft Winds

METAR

SKSP 180900Z 06012G22KT 040V110 9999 FEW014 SCT200 28/24 A2985

TAF

Not found

Frequencies

Tower 118.10 MHz TWR
Approach 119.30 MHz SAN ANDRES APP
Warning: Do not use this data for real-world aviation or navigation. No guarantee of current accuracy is given.